sensor_id;sensor_type;location;lat;lon;timestamp;P1;durP1;ratioP1;P2;durP2;ratioP2
17570;SDS011;8903;52.220;20.978;2023-04-25T00:02:17;17.70;;;16.00;;
17570;SDS011;8903;52.220;20.978;2023-04-25T00:04:44;19.43;;;16.23;;
17570;SDS011;8903;52.220;20.978;2023-04-25T00:07:13;18.60;;;16.70;;
17570;SDS011;8903;52.220;20.978;2023-04-25T00:09:41;20.77;;;16.60;;
17570;SDS011;8903;52.220;20.978;2023-04-25T00:12:09;18.63;;;16.70;;
17570;SDS011;8903;52.220;20.978;2023-04-25T00:14:36;21.10;;;17.03;;
17570;SDS011;8903;52.220;20.978;2023-04-25T00:17:03;19.73;;;17.30;;
17570;SDS011;8903;52.220;20.978;2023-04-25T00:19:31;19.17;;;16.90;;
17570;SDS011;8903;52.220;20.978;2023-04-25T00:21:59;22.83;;;17.20;;
17570;SDS011;8903;52.220;20.978;2023-04-25T00:24:27;18.93;;;17.03;;
17570;SDS011;8903;52.220;20.978;2023-04-25T00:26:53;21.97;;;18.50;;
17570;SDS011;8903;52.220;20.978;2023-04-25T00:29:22;20.13;;;17.73;;
17570;SDS011;8903;52.220;20.978;2023-04-25T00:31:49;20.30;;;18.20;;
17570;SDS011;8903;52.220;20.978;2023-04-25T00:34:16;18.30;;;16.40;;
17570;SDS011;8903;52.220;20.978;2023-04-25T00:36:43;19.50;;;17.40;;
17570;SDS011;8903;52.220;20.978;2023-04-25T00:39:10;22.10;;;19.50;;
17570;SDS011;8903;52.220;20.978;2023-04-25T00:41:37;23.17;;;18.30;;
17570;SDS011;8903;52.220;20.978;2023-04-25T00:44:06;21.00;;;18.10;;
17570;SDS011;8903;52.220;20.978;2023-04-25T00:46:37;22.40;;;18.73;;
17570;SDS011;8903;52.220;20.978;2023-04-25T00:49:05;22.30;;;19.20;;
17570;SDS011;8903;52.220;20.978;2023-04-25T00:51:32;21.23;;;19.00;;
17570;SDS011;8903;52.220;20.978;2023-04-25T00:54:00;21.97;;;19.67;;
17570;SDS011;8903;52.220;20.978;2023-04-25T00:56:27;22.57;;;19.77;;
17570;SDS011;8903;52.220;20.978;2023-04-25T00:58:54;19.73;;;17.73;;
17570;SDS011;8903;52.220;20.978;2023-04-25T01:01:22;24.63;;;19.80;;
17570;SDS011;8903;52.220;20.978;2023-04-25T01:03:51;19.63;;;17.17;;
17570;SDS011;8903;52.220;20.978;2023-04-25T01:06:20;21.93;;;19.63;;
17570;SDS011;8903;52.220;20.978;2023-04-25T01:08:48;27.57;;;21.23;;
17570;SDS011;8903;52.220;20.978;2023-04-25T01:11:15;20.50;;;18.37;;
17570;SDS011;8903;52.220;20.978;2023-04-25T01:13:42;23.03;;;19.87;;
17570;SDS011;8903;52.220;20.978;2023-04-25T01:16:09;19.37;;;17.47;;
17570;SDS011;8903;52.220;20.978;2023-04-25T01:18:36;24.07;;;19.93;;
17570;SDS011;8903;52.220;20.978;2023-04-25T01:21:08;21.27;;;19.03;;
17570;SDS011;8903;52.220;20.978;2023-04-25T01:23:36;20.13;;;17.83;;
17570;SDS011;8903;52.220;20.978;2023-04-25T01:26:03;19.87;;;17.77;;
17570;SDS011;8903;52.220;20.978;2023-04-25T01:28:32;22.37;;;20.07;;
17570;SDS011;8903;52.220;20.978;2023-04-25T01:31:00;20.43;;;18.30;;
17570;SDS011;8903;52.220;20.978;2023-04-25T01:33:28;21.03;;;18.83;;
17570;SDS011;8903;52.220;20.978;2023-04-25T01:35:56;21.63;;;19.27;;
17570;SDS011;8903;52.220;20.978;2023-04-25T01:38:24;20.67;;;18.43;;
17570;SDS011;8903;52.220;20.978;2023-04-25T01:40:53;22.50;;;18.63;;
17570;SDS011;8903;52.220;20.978;2023-04-25T01:43:21;21.23;;;18.67;;
17570;SDS011;8903;52.220;20.978;2023-04-25T01:45:49;19.97;;;17.87;;
17570;SDS011;8903;52.220;20.978;2023-04-25T01:48:16;20.97;;;17.87;;
17570;SDS011;8903;52.220;20.978;2023-04-25T01:50:45;19.53;;;17.50;;
17570;SDS011;8903;52.220;20.978;2023-04-25T01:53:12;21.43;;;17.93;;
17570;SDS011;8903;52.220;20.978;2023-04-25T01:55:43;21.70;;;17.10;;
17570;SDS011;8903;52.220;20.978;2023-04-25T01:58:14;19.00;;;16.97;;
17570;SDS011;8903;52.220;20.978;2023-04-25T02:01:06;19.50;;;16.80;;
17570;SDS011;8903;52.220;20.978;2023-04-25T02:03:41;20.30;;;17.87;;
17570;SDS011;8903;52.220;20.978;2023-04-25T02:06:16;22.57;;;18.47;;
17570;SDS011;8903;52.220;20.978;2023-04-25T02:08:45;21.40;;;19.10;;
17570;SDS011;8903;52.220;20.978;2023-04-25T02:11:14;19.13;;;17.17;;
17570;SDS011;8903;52.220;20.978;2023-04-25T02:13:47;20.40;;;17.50;;
17570;SDS011;8903;52.220;20.978;2023-04-25T02:16:49;18.93;;;17.03;;
17570;SDS011;8903;52.220;20.978;2023-04-25T02:19:17;19.93;;;17.23;;
17570;SDS011;8903;52.220;20.978;2023-04-25T02:21:46;23.40;;;17.37;;
17570;SDS011;8903;52.220;20.978;2023-04-25T02:24:13;22.10;;;16.93;;
17570;SDS011;8903;52.220;20.978;2023-04-25T02:26:41;17.83;;;15.80;;
17570;SDS011;8903;52.220;20.978;2023-04-25T02:29:09;17.70;;;15.63;;
17570;SDS011;8903;52.220;20.978;2023-04-25T02:31:36;18.40;;;16.50;;
17570;SDS011;8903;52.220;20.978;2023-04-25T02:34:03;18.10;;;16.20;;
17570;SDS011;8903;52.220;20.978;2023-04-25T02:36:30;19.90;;;17.40;;
17570;SDS011;8903;52.220;20.978;2023-04-25T02:38:59;17.07;;;14.77;;
17570;SDS011;8903;52.220;20.978;2023-04-25T02:41:26;25.13;;;15.27;;
17570;SDS011;8903;52.220;20.978;2023-04-25T02:43:55;15.07;;;13.47;;
17570;SDS011;8903;52.220;20.978;2023-04-25T02:46:22;18.73;;;15.03;;
17570;SDS011;8903;52.220;20.978;2023-04-25T02:48:49;16.17;;;14.57;;
17570;SDS011;8903;52.220;20.978;2023-04-25T02:51:16;15.57;;;13.83;;
17570;SDS011;8903;52.220;20.978;2023-04-25T02:53:43;18.27;;;13.90;;
17570;SDS011;8903;52.220;20.978;2023-04-25T02:56:10;16.37;;;14.70;;
17570;SDS011;8903;52.220;20.978;2023-04-25T02:58:37;14.50;;;13.00;;
17570;SDS011;8903;52.220;20.978;2023-04-25T03:01:06;14.60;;;13.00;;
17570;SDS011;8903;52.220;20.978;2023-04-25T03:03:33;15.17;;;13.57;;
17570;SDS011;8903;52.220;20.978;2023-04-25T03:06:00;16.13;;;14.40;;
17570;SDS011;8903;52.220;20.978;2023-04-25T03:08:30;18.00;;;15.07;;
17570;SDS011;8903;52.220;20.978;2023-04-25T03:11:00;20.07;;;15.40;;
17570;SDS011;8903;52.220;20.978;2023-04-25T03:13:27;18.57;;;14.43;;
17570;SDS011;8903;52.220;20.978;2023-04-25T03:15:56;17.53;;;14.30;;
17570;SDS011;8903;52.220;20.978;2023-04-25T03:18:24;16.03;;;14.37;;
17570;SDS011;8903;52.220;20.978;2023-04-25T03:20:53;18.70;;;14.70;;
17570;SDS011;8903;52.220;20.978;2023-04-25T03:23:20;16.43;;;14.60;;
17570;SDS011;8903;52.220;20.978;2023-04-25T03:25:47;19.93;;;13.80;;
17570;SDS011;8903;52.220;20.978;2023-04-25T03:28:14;19.40;;;15.13;;
17570;SDS011;8903;52.220;20.978;2023-04-25T03:30:41;17.83;;;14.27;;
17570;SDS011;8903;52.220;20.978;2023-04-25T03:33:09;17.50;;;13.63;;
17570;SDS011;8903;52.220;20.978;2023-04-25T03:35:37;18.00;;;13.40;;
17570;SDS011;8903;52.220;20.978;2023-04-25T03:38:04;16.83;;;13.93;;
17570;SDS011;8903;52.220;20.978;2023-04-25T03:40:37;18.80;;;13.83;;
17570;SDS011;8903;52.220;20.978;2023-04-25T03:43:16;18.93;;;14.40;;
17570;SDS011;8903;52.220;20.978;2023-04-25T03:45:49;19.60;;;14.97;;
17570;SDS011;8903;52.220;20.978;2023-04-25T03:48:19;18.40;;;14.00;;
17570;SDS011;8903;52.220;20.978;2023-04-25T03:50:51;17.80;;;13.63;;
17570;SDS011;8903;52.220;20.978;2023-04-25T03:53:18;19.40;;;13.83;;
17570;SDS011;8903;52.220;20.978;2023-04-25T03:56:06;17.90;;;14.07;;
17570;SDS011;8903;52.220;20.978;2023-04-25T03:58:35;16.33;;;13.50;;
17570;SDS011;8903;52.220;20.978;2023-04-25T04:01:02;17.17;;;13.73;;
17570;SDS011;8903;52.220;20.978;2023-04-25T04:03:33;15.83;;;13.07;;
17570;SDS011;8903;52.220;20.978;2023-04-25T04:06:02;22.20;;;12.43;;
17570;SDS011;8903;52.220;20.978;2023-04-25T04:08:32;12.77;;;11.47;;
17570;SDS011;8903;52.220;20.978;2023-04-25T04:10:59;13.90;;;10.40;;
17570;SDS011;8903;52.220;20.978;2023-04-25T04:13:26;13.60;;;10.67;;
17570;SDS011;8903;52.220;20.978;2023-04-25T04:15:54;11.53;;;10.30;;
17570;SDS011;8903;52.220;20.978;2023-04-25T04:18:22;11.63;;;10.30;;
17570;SDS011;8903;52.220;20.978;2023-04-25T04:20:50;10.83;;;9.73;;
17570;SDS011;8903;52.220;20.978;2023-04-25T04:23:18;12.10;;;10.53;;
17570;SDS011;8903;52.220;20.978;2023-04-25T04:25:46;13.87;;;10.50;;
17570;SDS011;8903;52.220;20.978;2023-04-25T04:28:26;10.63;;;9.53;;
17570;SDS011;8903;52.220;20.978;2023-04-25T04:30:58;14.97;;;11.33;;
17570;SDS011;8903;52.220;20.978;2023-04-25T04:33:26;13.60;;;11.23;;
17570;SDS011;8903;52.220;20.978;2023-04-25T04:35:58;15.10;;;11.67;;
17570;SDS011;8903;52.220;20.978;2023-04-25T04:38:28;11.70;;;10.50;;
17570;SDS011;8903;52.220;20.978;2023-04-25T04:40:59;13.20;;;11.70;;
17570;SDS011;8903;52.220;20.978;2023-04-25T04:43:48;11.40;;;10.20;;
17570;SDS011;8903;52.220;20.978;2023-04-25T04:46:29;12.60;;;10.70;;
17570;SDS011;8903;52.220;20.978;2023-04-25T04:49:11;14.57;;;12.13;;
17570;SDS011;8903;52.220;20.978;2023-04-25T04:52:14;13.37;;;12.00;;
17570;SDS011;8903;52.220;20.978;2023-04-25T04:55:03;13.23;;;11.73;;
17570;SDS011;8903;52.220;20.978;2023-04-25T04:57:33;15.73;;;13.00;;
17570;SDS011;8903;52.220;20.978;2023-04-25T05:00:29;15.30;;;13.80;;
17570;SDS011;8903;52.220;20.978;2023-04-25T05:03:16;15.33;;;12.30;;
17570;SDS011;8903;52.220;20.978;2023-04-25T05:06:09;17.17;;;13.87;;
17570;SDS011;8903;52.220;20.978;2023-04-25T05:09:11;18.60;;;15.57;;
17570;SDS011;8903;52.220;20.978;2023-04-25T05:12:09;17.90;;;15.30;;
17570;SDS011;8903;52.220;20.978;2023-04-25T05:15:02;17.57;;;15.33;;
17570;SDS011;8903;52.220;20.978;2023-04-25T05:17:29;18.83;;;16.77;;
17570;SDS011;8903;52.220;20.978;2023-04-25T05:20:15;18.87;;;16.20;;
17570;SDS011;8903;52.220;20.978;2023-04-25T05:23:03;16.97;;;15.20;;
17570;SDS011;8903;52.220;20.978;2023-04-25T05:25:42;20.83;;;16.70;;
17570;SDS011;8903;52.220;20.978;2023-04-25T05:28:23;21.50;;;17.70;;
17570;SDS011;8903;52.220;20.978;2023-04-25T05:30:59;21.90;;;17.57;;
17570;SDS011;8903;52.220;20.978;2023-04-25T05:33:49;20.53;;;18.43;;
17570;SDS011;8903;52.220;20.978;2023-04-25T05:36:17;22.10;;;17.90;;
17570;SDS011;8903;52.220;20.978;2023-04-25T05:38:45;19.67;;;17.50;;
17570;SDS011;8903;52.220;20.978;2023-04-25T05:41:32;22.80;;;18.87;;
17570;SDS011;8903;52.220;20.978;2023-04-25T05:44:13;20.93;;;17.50;;
17570;SDS011;8903;52.220;20.978;2023-04-25T05:46:47;18.90;;;16.90;;
17570;SDS011;8903;52.220;20.978;2023-04-25T05:49:23;21.00;;;18.70;;
17570;SDS011;8903;52.220;20.978;2023-04-25T05:52:08;22.53;;;20.00;;
17570;SDS011;8903;52.220;20.978;2023-04-25T05:54:46;23.77;;;21.27;;
17570;SDS011;8903;52.220;20.978;2023-04-25T05:57:18;25.37;;;21.57;;
17570;SDS011;8903;52.220;20.978;2023-04-25T05:59:49;23.67;;;20.73;;
17570;SDS011;8903;52.220;20.978;2023-04-25T06:02:16;23.00;;;20.70;;
17570;SDS011;8903;52.220;20.978;2023-04-25T06:04:43;28.40;;;22.53;;
17570;SDS011;8903;52.220;20.978;2023-04-25T06:07:10;25.30;;;21.87;;
17570;SDS011;8903;52.220;20.978;2023-04-25T06:09:38;24.47;;;21.87;;
17570;SDS011;8903;52.220;20.978;2023-04-25T06:12:05;23.10;;;20.70;;
17570;SDS011;8903;52.220;20.978;2023-04-25T06:14:34;24.50;;;21.20;;
17570;SDS011;8903;52.220;20.978;2023-04-25T06:17:03;25.13;;;22.53;;
17570;SDS011;8903;52.220;20.978;2023-04-25T06:19:33;29.93;;;22.13;;
17570;SDS011;8903;52.220;20.978;2023-04-25T06:22:02;24.10;;;21.63;;
17570;SDS011;8903;52.220;20.978;2023-04-25T06:24:30;26.50;;;22.80;;
17570;SDS011;8903;52.220;20.978;2023-04-25T06:26:57;29.30;;;23.20;;
17570;SDS011;8903;52.220;20.978;2023-04-25T06:29:25;25.07;;;22.27;;
17570;SDS011;8903;52.220;20.978;2023-04-25T06:31:52;25.27;;;21.63;;
17570;SDS011;8903;52.220;20.978;2023-04-25T06:34:22;25.53;;;19.93;;
17570;SDS011;8903;52.220;20.978;2023-04-25T06:36:49;25.20;;;19.20;;
17570;SDS011;8903;52.220;20.978;2023-04-25T06:39:16;22.80;;;18.97;;
17570;SDS011;8903;52.220;20.978;2023-04-25T06:41:45;26.83;;;18.80;;
17570;SDS011;8903;52.220;20.978;2023-04-25T06:44:35;21.00;;;17.27;;
17570;SDS011;8903;52.220;20.978;2023-04-25T06:47:03;21.83;;;17.60;;
17570;SDS011;8903;52.220;20.978;2023-04-25T06:49:31;21.87;;;17.77;;
17570;SDS011;8903;52.220;20.978;2023-04-25T06:51:59;21.73;;;18.33;;
17570;SDS011;8903;52.220;20.978;2023-04-25T06:54:26;19.83;;;17.30;;
17570;SDS011;8903;52.220;20.978;2023-04-25T06:57:02;25.43;;;18.30;;
17570;SDS011;8903;52.220;20.978;2023-04-25T06:59:31;22.00;;;17.70;;
17570;SDS011;8903;52.220;20.978;2023-04-25T07:01:58;25.70;;;18.87;;
17570;SDS011;8903;52.220;20.978;2023-04-25T07:04:25;22.23;;;18.27;;
17570;SDS011;8903;52.220;20.978;2023-04-25T07:06:58;25.60;;;18.83;;
17570;SDS011;8903;52.220;20.978;2023-04-25T07:09:45;25.60;;;19.93;;
17570;SDS011;8903;52.220;20.978;2023-04-25T07:12:12;23.77;;;18.57;;
17570;SDS011;8903;52.220;20.978;2023-04-25T07:14:39;27.63;;;19.30;;
17570;SDS011;8903;52.220;20.978;2023-04-25T07:17:07;25.60;;;19.30;;
17570;SDS011;8903;52.220;20.978;2023-04-25T07:19:34;24.67;;;20.00;;
17570;SDS011;8903;52.220;20.978;2023-04-25T07:22:04;26.10;;;19.50;;
17570;SDS011;8903;52.220;20.978;2023-04-25T07:24:32;25.87;;;20.70;;
17570;SDS011;8903;52.220;20.978;2023-04-25T07:26:59;31.80;;;21.90;;
17570;SDS011;8903;52.220;20.978;2023-04-25T07:29:30;32.07;;;23.57;;
17570;SDS011;8903;52.220;20.978;2023-04-25T07:31:59;25.97;;;19.60;;
17570;SDS011;8903;52.220;20.978;2023-04-25T07:34:26;23.17;;;19.63;;
17570;SDS011;8903;52.220;20.978;2023-04-25T07:36:53;27.20;;;20.47;;
17570;SDS011;8903;52.220;20.978;2023-04-25T07:39:23;24.77;;;20.00;;
17570;SDS011;8903;52.220;20.978;2023-04-25T07:41:50;24.60;;;19.63;;
17570;SDS011;8903;52.220;20.978;2023-04-25T07:44:23;33.27;;;19.70;;
17570;SDS011;8903;52.220;20.978;2023-04-25T07:46:51;23.23;;;18.83;;
17570;SDS011;8903;52.220;20.978;2023-04-25T07:49:18;24.17;;;18.40;;
17570;SDS011;8903;52.220;20.978;2023-04-25T07:51:45;24.33;;;14.27;;
17570;SDS011;8903;52.220;20.978;2023-04-25T07:54:15;19.47;;;16.77;;
17570;SDS011;8903;52.220;20.978;2023-04-25T07:56:53;18.90;;;16.97;;
17570;SDS011;8903;52.220;20.978;2023-04-25T07:59:25;17.17;;;15.40;;
17570;SDS011;8903;52.220;20.978;2023-04-25T08:01:52;19.87;;;16.10;;
17570;SDS011;8903;52.220;20.978;2023-04-25T08:04:21;21.23;;;15.67;;
17570;SDS011;8903;52.220;20.978;2023-04-25T08:06:53;18.33;;;15.93;;
17570;SDS011;8903;52.220;20.978;2023-04-25T08:09:26;17.43;;;15.70;;
17570;SDS011;8903;52.220;20.978;2023-04-25T08:11:56;19.60;;;15.03;;
17570;SDS011;8903;52.220;20.978;2023-04-25T08:14:28;20.60;;;16.50;;
17570;SDS011;8903;52.220;20.978;2023-04-25T08:17:00;16.20;;;14.30;;
17570;SDS011;8903;52.220;20.978;2023-04-25T08:19:31;17.13;;;14.67;;
17570;SDS011;8903;52.220;20.978;2023-04-25T08:21:58;17.77;;;15.93;;
17570;SDS011;8903;52.220;20.978;2023-04-25T08:24:33;17.80;;;14.80;;
17570;SDS011;8903;52.220;20.978;2023-04-25T08:27:02;14.93;;;13.00;;
17570;SDS011;8903;52.220;20.978;2023-04-25T08:29:30;17.73;;;15.30;;
17570;SDS011;8903;52.220;20.978;2023-04-25T08:31:57;15.07;;;13.47;;
17570;SDS011;8903;52.220;20.978;2023-04-25T08:34:24;14.77;;;13.17;;
17570;SDS011;8903;52.220;20.978;2023-04-25T08:36:51;13.33;;;12.00;;
17570;SDS011;8903;52.220;20.978;2023-04-25T08:39:25;13.93;;;12.57;;
17570;SDS011;8903;52.220;20.978;2023-04-25T08:42:18;13.47;;;12.03;;
17570;SDS011;8903;52.220;20.978;2023-04-25T08:44:46;13.47;;;12.20;;
17570;SDS011;8903;52.220;20.978;2023-04-25T08:47:15;17.37;;;13.40;;
17570;SDS011;8903;52.220;20.978;2023-04-25T08:49:48;16.20;;;14.30;;
17570;SDS011;8903;52.220;20.978;2023-04-25T08:52:19;16.20;;;14.53;;
17570;SDS011;8903;52.220;20.978;2023-04-25T08:54:48;15.23;;;13.63;;
17570;SDS011;8903;52.220;20.978;2023-04-25T08:57:19;15.20;;;13.70;;
17570;SDS011;8903;52.220;20.978;2023-04-25T08:59:49;12.70;;;11.50;;
17570;SDS011;8903;52.220;20.978;2023-04-25T09:02:16;14.47;;;13.07;;
17570;SDS011;8903;52.220;20.978;2023-04-25T09:04:48;15.73;;;11.70;;
17570;SDS011;8903;52.220;20.978;2023-04-25T09:07:16;13.83;;;12.43;;
17570;SDS011;8903;52.220;20.978;2023-04-25T09:09:46;11.30;;;10.20;;
17570;SDS011;8903;52.220;20.978;2023-04-25T09:12:17;13.30;;;12.00;;
17570;SDS011;8903;52.220;20.978;2023-04-25T09:15:00;14.60;;;13.00;;
17570;SDS011;8903;52.220;20.978;2023-04-25T09:17:54;18.47;;;16.20;;
17570;SDS011;8903;52.220;20.978;2023-04-25T09:20:22;19.90;;;17.80;;
17570;SDS011;8903;52.220;20.978;2023-04-25T09:22:50;23.97;;;19.33;;
17570;SDS011;8903;52.220;20.978;2023-04-25T09:25:33;24.27;;;20.40;;
17570;SDS011;8903;52.220;20.978;2023-04-25T09:28:06;30.73;;;20.37;;
17570;SDS011;8903;52.220;20.978;2023-04-25T09:30:33;25.90;;;21.90;;
17570;SDS011;8903;52.220;20.978;2023-04-25T09:33:28;24.37;;;19.70;;
17570;SDS011;8903;52.220;20.978;2023-04-25T09:36:01;27.57;;;22.23;;
17570;SDS011;8903;52.220;20.978;2023-04-25T09:39:01;25.63;;;21.60;;
17570;SDS011;8903;52.220;20.978;2023-04-25T09:41:32;29.60;;;23.00;;
17570;SDS011;8903;52.220;20.978;2023-04-25T09:44:05;29.83;;;23.40;;
17570;SDS011;8903;52.220;20.978;2023-04-25T09:46:35;32.20;;;26.27;;
17570;SDS011;8903;52.220;20.978;2023-04-25T09:49:05;29.27;;;24.40;;
17570;SDS011;8903;52.220;20.978;2023-04-25T09:51:42;30.47;;;24.37;;
17570;SDS011;8903;52.220;20.978;2023-04-25T09:54:21;28.60;;;24.27;;
17570;SDS011;8903;52.220;20.978;2023-04-25T09:56:53;28.83;;;24.57;;
17570;SDS011;8903;52.220;20.978;2023-04-25T09:59:22;31.37;;;25.23;;
17570;SDS011;8903;52.220;20.978;2023-04-25T10:01:49;33.13;;;26.40;;
17570;SDS011;8903;52.220;20.978;2023-04-25T10:04:25;36.77;;;27.47;;
17570;SDS011;8903;52.220;20.978;2023-04-25T10:06:58;32.77;;;27.50;;
17570;SDS011;8903;52.220;20.978;2023-04-25T10:09:26;34.87;;;28.93;;
17570;SDS011;8903;52.220;20.978;2023-04-25T10:11:58;33.10;;;25.20;;
17570;SDS011;8903;52.220;20.978;2023-04-25T10:14:28;31.37;;;24.90;;
17570;SDS011;8903;52.220;20.978;2023-04-25T10:16:56;32.73;;;24.20;;
17570;SDS011;8903;52.220;20.978;2023-04-25T10:19:24;32.57;;;26.07;;
17570;SDS011;8903;52.220;20.978;2023-04-25T10:21:52;34.17;;;28.07;;
17570;SDS011;8903;52.220;20.978;2023-04-25T10:24:23;31.27;;;25.73;;
17570;SDS011;8903;52.220;20.978;2023-04-25T10:26:51;34.57;;;26.90;;
17570;SDS011;8903;52.220;20.978;2023-04-25T10:29:22;31.67;;;24.70;;
17570;SDS011;8903;52.220;20.978;2023-04-25T10:31:51;27.17;;;23.20;;
17570;SDS011;8903;52.220;20.978;2023-04-25T10:34:18;30.93;;;24.00;;
17570;SDS011;8903;52.220;20.978;2023-04-25T10:36:50;30.80;;;25.40;;
17570;SDS011;8903;52.220;20.978;2023-04-25T10:39:21;30.77;;;24.80;;
17570;SDS011;8903;52.220;20.978;2023-04-25T10:41:53;31.97;;;26.33;;
17570;SDS011;8903;52.220;20.978;2023-04-25T10:44:22;34.70;;;25.90;;
17570;SDS011;8903;52.220;20.978;2023-04-25T10:46:50;28.60;;;24.70;;
17570;SDS011;8903;52.220;20.978;2023-04-25T10:49:30;31.57;;;26.90;;
17570;SDS011;8903;52.220;20.978;2023-04-25T10:52:11;30.87;;;25.00;;
17570;SDS011;8903;52.220;20.978;2023-04-25T10:54:46;33.53;;;24.80;;
17570;SDS011;8903;52.220;20.978;2023-04-25T11:00:07;29.30;;;25.10;;
17570;SDS011;8903;52.220;20.978;2023-04-25T11:02:39;28.17;;;25.13;;
17570;SDS011;8903;52.220;20.978;2023-04-25T11:05:08;28.00;;;23.83;;
17570;SDS011;8903;52.220;20.978;2023-04-25T11:07:38;29.27;;;24.80;;
17570;SDS011;8903;52.220;20.978;2023-04-25T11:10:10;26.90;;;24.00;;
17570;SDS011;8903;52.220;20.978;2023-04-25T11:12:37;26.93;;;23.43;;
17570;SDS011;8903;52.220;20.978;2023-04-25T11:15:05;27.13;;;24.23;;
17570;SDS011;8903;52.220;20.978;2023-04-25T11:17:33;26.63;;;23.83;;
17570;SDS011;8903;52.220;20.978;2023-04-25T11:20:02;30.73;;;23.80;;
17570;SDS011;8903;52.220;20.978;2023-04-25T11:22:34;25.23;;;22.50;;
17570;SDS011;8903;52.220;20.978;2023-04-25T11:25:04;26.10;;;23.50;;
17570;SDS011;8903;52.220;20.978;2023-04-25T11:27:32;25.90;;;22.20;;
17570;SDS011;8903;52.220;20.978;2023-04-25T11:30:09;23.90;;;21.20;;
17570;SDS011;8903;52.220;20.978;2023-04-25T11:32:38;21.20;;;19.03;;
17570;SDS011;8903;52.220;20.978;2023-04-25T11:35:07;22.10;;;19.97;;
17570;SDS011;8903;52.220;20.978;2023-04-25T11:37:35;24.13;;;21.20;;
17570;SDS011;8903;52.220;20.978;2023-04-25T11:40:02;23.53;;;20.57;;
17570;SDS011;8903;52.220;20.978;2023-04-25T11:42:31;23.47;;;20.97;;
17570;SDS011;8903;52.220;20.978;2023-04-25T11:44:59;23.33;;;21.03;;
17570;SDS011;8903;52.220;20.978;2023-04-25T11:47:29;24.97;;;20.10;;
17570;SDS011;8903;52.220;20.978;2023-04-25T11:49:57;25.17;;;22.10;;
17570;SDS011;8903;52.220;20.978;2023-04-25T11:52:36;20.90;;;18.90;;
17570;SDS011;8903;52.220;20.978;2023-04-25T11:55:04;22.73;;;20.27;;
17570;SDS011;8903;52.220;20.978;2023-04-25T11:57:32;21.60;;;19.40;;
17570;SDS011;8903;52.220;20.978;2023-04-25T12:00:09;21.57;;;19.40;;
17570;SDS011;8903;52.220;20.978;2023-04-25T12:02:42;18.30;;;16.37;;
17570;SDS011;8903;52.220;20.978;2023-04-25T12:05:10;20.00;;;18.10;;
17570;SDS011;8903;52.220;20.978;2023-04-25T12:07:40;19.67;;;17.10;;
17570;SDS011;8903;52.220;20.978;2023-04-25T12:10:08;15.93;;;14.20;;
17570;SDS011;8903;52.220;20.978;2023-04-25T12:12:37;17.97;;;16.27;;
17570;SDS011;8903;52.220;20.978;2023-04-25T12:15:08;16.07;;;14.43;;
17570;SDS011;8903;52.220;20.978;2023-04-25T12:17:36;14.93;;;13.40;;
17570;SDS011;8903;52.220;20.978;2023-04-25T12:20:07;18.27;;;15.47;;
17570;SDS011;8903;52.220;20.978;2023-04-25T12:22:35;16.10;;;14.50;;
17570;SDS011;8903;52.220;20.978;2023-04-25T12:25:04;14.73;;;13.33;;
17570;SDS011;8903;52.220;20.978;2023-04-25T12:27:32;15.00;;;13.07;;
17570;SDS011;8903;52.220;20.978;2023-04-25T12:30:01;14.57;;;12.97;;
17570;SDS011;8903;52.220;20.978;2023-04-25T12:32:28;12.03;;;10.93;;
17570;SDS011;8903;52.220;20.978;2023-04-25T12:34:56;12.03;;;10.83;;
17570;SDS011;8903;52.220;20.978;2023-04-25T12:37:22;10.50;;;9.50;;
17570;SDS011;8903;52.220;20.978;2023-04-25T12:39:49;11.53;;;10.47;;
17570;SDS011;8903;52.220;20.978;2023-04-25T12:42:18;17.90;;;10.87;;
17570;SDS011;8903;52.220;20.978;2023-04-25T12:44:45;11.37;;;10.27;;
17570;SDS011;8903;52.220;20.978;2023-04-25T12:47:12;9.33;;;8.33;;
17570;SDS011;8903;52.220;20.978;2023-04-25T12:49:40;11.80;;;9.43;;
17570;SDS011;8903;52.220;20.978;2023-04-25T12:52:06;8.80;;;8.00;;
17570;SDS011;8903;52.220;20.978;2023-04-25T12:54:33;12.27;;;9.27;;
17570;SDS011;8903;52.220;20.978;2023-04-25T12:57:00;8.47;;;7.77;;
17570;SDS011;8903;52.220;20.978;2023-04-25T12:59:29;10.93;;;9.80;;
17570;SDS011;8903;52.220;20.978;2023-04-25T13:01:56;8.67;;;7.50;;
17570;SDS011;8903;52.220;20.978;2023-04-25T13:04:23;9.90;;;9.00;;
17570;SDS011;8903;52.220;20.978;2023-04-25T13:06:50;11.30;;;10.30;;
17570;SDS011;8903;52.220;20.978;2023-04-25T13:09:17;11.33;;;10.33;;
17570;SDS011;8903;52.220;20.978;2023-04-25T13:11:45;12.70;;;11.47;;
17570;SDS011;8903;52.220;20.978;2023-04-25T13:14:12;12.27;;;11.17;;
17570;SDS011;8903;52.220;20.978;2023-04-25T13:16:41;13.50;;;12.10;;
17570;SDS011;8903;52.220;20.978;2023-04-25T13:19:08;11.77;;;10.53;;
17570;SDS011;8903;52.220;20.978;2023-04-25T13:21:36;10.10;;;9.10;;
17570;SDS011;8903;52.220;20.978;2023-04-25T13:24:03;9.60;;;8.60;;
17570;SDS011;8903;52.220;20.978;2023-04-25T13:26:31;9.73;;;8.93;;
17570;SDS011;8903;52.220;20.978;2023-04-25T13:28:58;10.63;;;9.67;;
17570;SDS011;8903;52.220;20.978;2023-04-25T13:31:25;9.63;;;8.73;;
17570;SDS011;8903;52.220;20.978;2023-04-25T13:33:53;10.60;;;9.70;;
17570;SDS011;8903;52.220;20.978;2023-04-25T13:36:20;12.40;;;9.47;;
17570;SDS011;8903;52.220;20.978;2023-04-25T13:38:47;9.60;;;8.70;;
17570;SDS011;8903;52.220;20.978;2023-04-25T13:41:14;11.70;;;10.73;;
17570;SDS011;8903;52.220;20.978;2023-04-25T13:43:44;11.30;;;10.30;;
17570;SDS011;8903;52.220;20.978;2023-04-25T13:46:13;11.00;;;10.00;;
17570;SDS011;8903;52.220;20.978;2023-04-25T13:48:41;10.20;;;9.20;;
17570;SDS011;8903;52.220;20.978;2023-04-25T13:51:13;11.37;;;10.33;;
17570;SDS011;8903;52.220;20.978;2023-04-25T13:53:42;13.57;;;12.17;;
17570;SDS011;8903;52.220;20.978;2023-04-25T13:56:10;11.90;;;10.70;;
17570;SDS011;8903;52.220;20.978;2023-04-25T13:58:37;13.67;;;12.00;;
17570;SDS011;8903;52.220;20.978;2023-04-25T14:01:04;13.00;;;11.70;;
17570;SDS011;8903;52.220;20.978;2023-04-25T14:03:31;10.03;;;9.10;;
17570;SDS011;8903;52.220;20.978;2023-04-25T14:05:58;10.83;;;9.80;;
17570;SDS011;8903;52.220;20.978;2023-04-25T14:08:27;11.73;;;10.77;;
17570;SDS011;8903;52.220;20.978;2023-04-25T14:10:54;12.30;;;11.20;;
17570;SDS011;8903;52.220;20.978;2023-04-25T14:13:21;12.47;;;11.20;;
17570;SDS011;8903;52.220;20.978;2023-04-25T14:15:48;10.60;;;9.73;;
17570;SDS011;8903;52.220;20.978;2023-04-25T14:18:16;10.83;;;9.73;;
17570;SDS011;8903;52.220;20.978;2023-04-25T14:20:43;10.63;;;9.03;;
17570;SDS011;8903;52.220;20.978;2023-04-25T14:23:11;10.80;;;9.80;;
17570;SDS011;8903;52.220;20.978;2023-04-25T14:25:39;10.87;;;9.83;;
17570;SDS011;8903;52.220;20.978;2023-04-25T14:28:07;9.50;;;8.70;;
17570;SDS011;8903;52.220;20.978;2023-04-25T14:30:34;9.03;;;8.13;;
17570;SDS011;8903;52.220;20.978;2023-04-25T14:33:01;10.70;;;9.60;;
17570;SDS011;8903;52.220;20.978;2023-04-25T14:35:28;9.73;;;8.83;;
17570;SDS011;8903;52.220;20.978;2023-04-25T14:37:55;12.77;;;9.77;;
17570;SDS011;8903;52.220;20.978;2023-04-25T14:40:23;10.77;;;8.70;;
17570;SDS011;8903;52.220;20.978;2023-04-25T14:42:51;10.30;;;9.23;;
17570;SDS011;8903;52.220;20.978;2023-04-25T14:45:18;15.37;;;10.60;;
17570;SDS011;8903;52.220;20.978;2023-04-25T14:47:45;10.53;;;9.57;;